sensor_id;sensor_type;location;lat;lon;timestamp;temperature;humidity
76751;SHT31;65216;51.090;-115.352;2023-04-03T00:01:19;21.42;28.17
76751;SHT31;65216;51.090;-115.352;2023-04-03T00:03:47;21.41;28.12
76751;SHT31;65216;51.090;-115.352;2023-04-03T00:06:14;21.40;28.18
76751;SHT31;65216;51.090;-115.352;2023-04-03T00:08:41;21.39;28.19
76751;SHT31;65216;51.090;-115.352;2023-04-03T00:11:09;21.38;28.19
76751;SHT31;65216;51.090;-115.352;2023-04-03T00:13:40;21.38;28.22
76751;SHT31;65216;51.090;-115.352;2023-04-03T00:16:09;21.39;28.30
76751;SHT31;65216;51.090;-115.352;2023-04-03T00:18:40;21.38;28.32
76751;SHT31;65216;51.090;-115.352;2023-04-03T00:21:09;21.38;28.40
76751;SHT31;65216;51.090;-115.352;2023-04-03T00:24:00;21.37;28.42
76751;SHT31;65216;51.090;-115.352;2023-04-03T00:26:32;21.37;28.51
76751;SHT31;65216;51.090;-115.352;2023-04-03T00:29:00;21.37;28.49
76751;SHT31;65216;51.090;-115.352;2023-04-03T00:31:27;21.37;28.46
76751;SHT31;65216;51.090;-115.352;2023-04-03T00:33:55;21.36;28.48
76751;SHT31;65216;51.090;-115.352;2023-04-03T00:36:27;21.36;28.45
76751;SHT31;65216;51.090;-115.352;2023-04-03T00:38:55;21.35;28.50
76751;SHT31;65216;51.090;-115.352;2023-04-03T00:41:22;21.36;28.49
76751;SHT31;65216;51.090;-115.352;2023-04-03T00:43:49;21.34;28.46
76751;SHT31;65216;51.090;-115.352;2023-04-03T00:46:16;21.34;28.50
76751;SHT31;65216;51.090;-115.352;2023-04-03T00:48:45;21.33;28.53
76751;SHT31;65216;51.090;-115.352;2023-04-03T00:51:16;21.32;28.48
76751;SHT31;65216;51.090;-115.352;2023-04-03T00:53:53;21.32;28.48
76751;SHT31;65216;51.090;-115.352;2023-04-03T00:56:28;21.31;28.47
76751;SHT31;65216;51.090;-115.352;2023-04-03T00:59:02;21.31;28.41
76751;SHT31;65216;51.090;-115.352;2023-04-03T01:01:41;21.31;28.39
76751;SHT31;65216;51.090;-115.352;2023-04-03T01:04:51;21.30;28.35
76751;SHT31;65216;51.090;-115.352;2023-04-03T01:07:18;21.30;28.30
76751;SHT31;65216;51.090;-115.352;2023-04-03T01:09:57;21.28;28.26
76751;SHT31;65216;51.090;-115.352;2023-04-03T01:12:34;21.28;28.19
76751;SHT31;65216;51.090;-115.352;2023-04-03T01:15:11;21.27;28.13
76751;SHT31;65216;51.090;-115.352;2023-04-03T01:17:45;21.26;28.09
76751;SHT31;65216;51.090;-115.352;2023-04-03T01:20:23;21.25;28.06
76751;SHT31;65216;51.090;-115.352;2023-04-03T01:25:50;21.25;28.01
76751;SHT31;65216;51.090;-115.352;2023-04-03T01:28:26;21.24;28.03
76751;SHT31;65216;51.090;-115.352;2023-04-03T01:33:46;21.21;28.01
76751;SHT31;65216;51.090;-115.352;2023-04-03T01:36:21;21.22;28.01
76751;SHT31;65216;51.090;-115.352;2023-04-03T01:38:55;21.22;27.99
76751;SHT31;65216;51.090;-115.352;2023-04-03T01:41:25;21.22;27.92
76751;SHT31;65216;51.090;-115.352;2023-04-03T01:43:53;21.19;27.91
76751;SHT31;65216;51.090;-115.352;2023-04-03T01:46:21;21.19;27.94
76751;SHT31;65216;51.090;-115.352;2023-04-03T01:48:48;21.18;27.90
76751;SHT31;65216;51.090;-115.352;2023-04-03T01:51:16;21.17;27.91
76751;SHT31;65216;51.090;-115.352;2023-04-03T01:53:43;21.17;27.90
76751;SHT31;65216;51.090;-115.352;2023-04-03T01:56:10;21.17;27.90
76751;SHT31;65216;51.090;-115.352;2023-04-03T01:58:37;21.17;27.90
76751;SHT31;65216;51.090;-115.352;2023-04-03T02:01:05;21.17;27.89
76751;SHT31;65216;51.090;-115.352;2023-04-03T02:03:32;21.17;27.90
76751;SHT31;65216;51.090;-115.352;2023-04-03T02:05:59;21.17;27.90
76751;SHT31;65216;51.090;-115.352;2023-04-03T02:08:30;21.17;27.86
76751;SHT31;65216;51.090;-115.352;2023-04-03T02:10:57;21.18;27.88
76751;SHT31;65216;51.090;-115.352;2023-04-03T02:13:25;21.17;27.89
76751;SHT31;65216;51.090;-115.352;2023-04-03T02:15:52;21.19;27.86
76751;SHT31;65216;51.090;-115.352;2023-04-03T02:18:19;21.18;27.86
76751;SHT31;65216;51.090;-115.352;2023-04-03T02:20:46;21.19;27.89
76751;SHT31;65216;51.090;-115.352;2023-04-03T02:23:17;21.20;27.90
76751;SHT31;65216;51.090;-115.352;2023-04-03T02:25:45;21.21;27.89
76751;SHT31;65216;51.090;-115.352;2023-04-03T02:28:15;21.21;27.87
76751;SHT31;65216;51.090;-115.352;2023-04-03T02:30:43;21.21;27.86
76751;SHT31;65216;51.090;-115.352;2023-04-03T02:33:15;21.21;27.83
76751;SHT31;65216;51.090;-115.352;2023-04-03T02:35:45;21.21;27.86
76751;SHT31;65216;51.090;-115.352;2023-04-03T02:38:19;21.22;27.85
76751;SHT31;65216;51.090;-115.352;2023-04-03T02:40:46;21.21;27.89
76751;SHT31;65216;51.090;-115.352;2023-04-03T02:43:14;21.21;27.90
76751;SHT31;65216;51.090;-115.352;2023-04-03T02:45:41;21.20;27.92
76751;SHT31;65216;51.090;-115.352;2023-04-03T02:48:14;21.19;27.88
76751;SHT31;65216;51.090;-115.352;2023-04-03T02:50:42;21.19;27.85
76751;SHT31;65216;51.090;-115.352;2023-04-03T02:53:09;21.18;27.81
76751;SHT31;65216;51.090;-115.352;2023-04-03T02:55:36;21.16;27.78
76751;SHT31;65216;51.090;-115.352;2023-04-03T02:58:03;21.18;27.67
76751;SHT31;65216;51.090;-115.352;2023-04-03T03:00:31;21.17;27.67
76751;SHT31;65216;51.090;-115.352;2023-04-03T03:02:59;21.16;27.58
76751;SHT31;65216;51.090;-115.352;2023-04-03T03:05:31;21.16;27.47
76751;SHT31;65216;51.090;-115.352;2023-04-03T03:07:59;21.15;27.35
76751;SHT31;65216;51.090;-115.352;2023-04-03T03:10:26;21.15;27.28
76751;SHT31;65216;51.090;-115.352;2023-04-03T03:12:53;21.12;27.19
76751;SHT31;65216;51.090;-115.352;2023-04-03T03:15:20;21.12;27.07
76751;SHT31;65216;51.090;-115.352;2023-04-03T03:17:48;21.10;26.99
76751;SHT31;65216;51.090;-115.352;2023-04-03T03:20:17;21.10;26.92
76751;SHT31;65216;51.090;-115.352;2023-04-03T03:22:45;21.08;26.84
76751;SHT31;65216;51.090;-115.352;2023-04-03T03:25:12;21.07;26.75
76751;SHT31;65216;51.090;-115.352;2023-04-03T03:27:42;21.07;26.68
76751;SHT31;65216;51.090;-115.352;2023-04-03T03:30:12;21.07;26.57
76751;SHT31;65216;51.090;-115.352;2023-04-03T03:32:42;21.06;26.51
76751;SHT31;65216;51.090;-115.352;2023-04-03T03:35:12;21.05;26.44
76751;SHT31;65216;51.090;-115.352;2023-04-03T03:37:39;21.03;26.39
76751;SHT31;65216;51.090;-115.352;2023-04-03T03:40:06;21.04;26.30
76751;SHT31;65216;51.090;-115.352;2023-04-03T03:42:34;21.03;26.27
76751;SHT31;65216;51.090;-115.352;2023-04-03T03:45:04;21.02;26.21
76751;SHT31;65216;51.090;-115.352;2023-04-03T03:47:32;21.00;26.15
76751;SHT31;65216;51.090;-115.352;2023-04-03T03:49:59;21.00;26.09
76751;SHT31;65216;51.090;-115.352;2023-04-03T03:52:30;20.99;26.06
76751;SHT31;65216;51.090;-115.352;2023-04-03T03:54:57;21.00;26.14
76751;SHT31;65216;51.090;-115.352;2023-04-03T03:57:27;20.99;26.25
76751;SHT31;65216;51.090;-115.352;2023-04-03T03:59:57;20.98;26.21
76751;SHT31;65216;51.090;-115.352;2023-04-03T04:02:24;20.98;26.19
76751;SHT31;65216;51.090;-115.352;2023-04-03T04:04:54;20.98;26.19
76751;SHT31;65216;51.090;-115.352;2023-04-03T04:07:22;20.98;26.30
76751;SHT31;65216;51.090;-115.352;2023-04-03T04:09:49;20.97;26.31
76751;SHT31;65216;51.090;-115.352;2023-04-03T04:12:16;20.96;26.26
76751;SHT31;65216;51.090;-115.352;2023-04-03T04:14:45;20.95;26.20
76751;SHT31;65216;51.090;-115.352;2023-04-03T04:17:13;20.95;26.18
76751;SHT31;65216;51.090;-115.352;2023-04-03T04:19:40;20.95;26.10
76751;SHT31;65216;51.090;-115.352;2023-04-03T04:22:07;20.95;26.08
76751;SHT31;65216;51.090;-115.352;2023-04-03T04:24:35;20.94;26.01
76751;SHT31;65216;51.090;-115.352;2023-04-03T04:27:07;20.95;25.94
76751;SHT31;65216;51.090;-115.352;2023-04-03T04:29:34;20.94;25.93
76751;SHT31;65216;51.090;-115.352;2023-04-03T04:32:03;20.94;25.90
76751;SHT31;65216;51.090;-115.352;2023-04-03T04:34:30;20.93;25.89
76751;SHT31;65216;51.090;-115.352;2023-04-03T04:36:57;20.92;25.80
76751;SHT31;65216;51.090;-115.352;2023-04-03T04:39:24;20.92;25.76
76751;SHT31;65216;51.090;-115.352;2023-04-03T04:41:54;20.92;25.68
76751;SHT31;65216;51.090;-115.352;2023-04-03T04:44:22;20.91;25.65
76751;SHT31;65216;51.090;-115.352;2023-04-03T04:46:49;20.90;25.60
76751;SHT31;65216;51.090;-115.352;2023-04-03T04:49:16;20.90;25.57
76751;SHT31;65216;51.090;-115.352;2023-04-03T04:51:43;20.90;25.55
76751;SHT31;65216;51.090;-115.352;2023-04-03T04:54:10;20.89;25.69
76751;SHT31;65216;51.090;-115.352;2023-04-03T04:56:41;20.88;25.90
76751;SHT31;65216;51.090;-115.352;2023-04-03T04:59:08;20.87;26.01
76751;SHT31;65216;51.090;-115.352;2023-04-03T05:01:35;20.87;26.01
76751;SHT31;65216;51.090;-115.352;2023-04-03T05:04:03;20.88;26.15
76751;SHT31;65216;51.090;-115.352;2023-04-03T05:06:31;20.87;25.98
76751;SHT31;65216;51.090;-115.352;2023-04-03T05:08:58;20.87;25.89
76751;SHT31;65216;51.090;-115.352;2023-04-03T05:11:25;20.87;25.92
76751;SHT31;65216;51.090;-115.352;2023-04-03T05:13:55;20.87;25.90
76751;SHT31;65216;51.090;-115.352;2023-04-03T05:16:23;20.88;25.80
76751;SHT31;65216;51.090;-115.352;2023-04-03T05:18:50;20.88;25.83
76751;SHT31;65216;51.090;-115.352;2023-04-03T05:21:17;20.86;25.78
76751;SHT31;65216;51.090;-115.352;2023-04-03T05:23:47;20.86;25.74
76751;SHT31;65216;51.090;-115.352;2023-04-03T05:26:14;20.86;25.68
76751;SHT31;65216;51.090;-115.352;2023-04-03T05:28:41;20.86;25.67
76751;SHT31;65216;51.090;-115.352;2023-04-03T05:31:08;20.85;25.74
76751;SHT31;65216;51.090;-115.352;2023-04-03T05:33:36;20.84;25.85
76751;SHT31;65216;51.090;-115.352;2023-04-03T05:36:03;20.83;25.98
76751;SHT31;65216;51.090;-115.352;2023-04-03T05:38:32;20.83;26.21
76751;SHT31;65216;51.090;-115.352;2023-04-03T05:40:59;20.83;26.17
76751;SHT31;65216;51.090;-115.352;2023-04-03T05:43:31;20.83;26.12
76751;SHT31;65216;51.090;-115.352;2023-04-03T05:46:00;20.83;26.08
76751;SHT31;65216;51.090;-115.352;2023-04-03T05:48:27;20.83;26.02
76751;SHT31;65216;51.090;-115.352;2023-04-03T05:50:54;20.83;25.99
76751;SHT31;65216;51.090;-115.352;2023-04-03T05:53:22;20.83;25.92
76751;SHT31;65216;51.090;-115.352;2023-04-03T05:55:54;20.82;25.91
76751;SHT31;65216;51.090;-115.352;2023-04-03T05:58:27;20.81;25.90
76751;SHT31;65216;51.090;-115.352;2023-04-03T06:00:54;20.81;25.82
76751;SHT31;65216;51.090;-115.352;2023-04-03T06:03:21;20.80;25.75
76751;SHT31;65216;51.090;-115.352;2023-04-03T06:05:48;20.81;25.66
76751;SHT31;65216;51.090;-115.352;2023-04-03T06:08:15;20.81;25.60
76751;SHT31;65216;51.090;-115.352;2023-04-03T06:10:45;20.81;25.52
76751;SHT31;65216;51.090;-115.352;2023-04-03T06:13:16;20.81;25.45
76751;SHT31;65216;51.090;-115.352;2023-04-03T06:15:43;20.80;25.39
76751;SHT31;65216;51.090;-115.352;2023-04-03T06:18:10;20.80;25.39
76751;SHT31;65216;51.090;-115.352;2023-04-03T06:20:37;20.80;25.32
76751;SHT31;65216;51.090;-115.352;2023-04-03T06:23:07;20.79;25.24
76751;SHT31;65216;51.090;-115.352;2023-04-03T06:25:35;20.79;25.22
76751;SHT31;65216;51.090;-115.352;2023-04-03T06:28:03;20.78;25.20
76751;SHT31;65216;51.090;-115.352;2023-04-03T06:30:31;20.78;25.17
76751;SHT31;65216;51.090;-115.352;2023-04-03T06:32:58;20.79;25.12
76751;SHT31;65216;51.090;-115.352;2023-04-03T06:35:25;20.80;25.07
76751;SHT31;65216;51.090;-115.352;2023-04-03T06:37:53;20.80;25.03
76751;SHT31;65216;51.090;-115.352;2023-04-03T06:40:22;20.79;25.02
76751;SHT31;65216;51.090;-115.352;2023-04-03T06:42:52;20.79;25.00
76751;SHT31;65216;51.090;-115.352;2023-04-03T06:45:19;20.79;24.95
76751;SHT31;65216;51.090;-115.352;2023-04-03T06:47:47;20.79;24.91
76751;SHT31;65216;51.090;-115.352;2023-04-03T06:50:14;20.79;24.89
76751;SHT31;65216;51.090;-115.352;2023-04-03T06:52:41;20.78;24.84
76751;SHT31;65216;51.090;-115.352;2023-04-03T06:55:11;20.78;24.82
76751;SHT31;65216;51.090;-115.352;2023-04-03T06:57:40;20.79;24.83
76751;SHT31;65216;51.090;-115.352;2023-04-03T07:00:08;20.77;24.81
76751;SHT31;65216;51.090;-115.352;2023-04-03T07:02:37;20.78;24.80
76751;SHT31;65216;51.090;-115.352;2023-04-03T07:05:04;20.79;24.73
76751;SHT31;65216;51.090;-115.352;2023-04-03T07:07:32;20.79;24.72
76751;SHT31;65216;51.090;-115.352;2023-04-03T07:10:00;20.79;24.70
76751;SHT31;65216;51.090;-115.352;2023-04-03T07:12:27;20.79;24.70
76751;SHT31;65216;51.090;-115.352;2023-04-03T07:14:55;20.79;24.66
76751;SHT31;65216;51.090;-115.352;2023-04-03T07:17:22;20.79;24.61
76751;SHT31;65216;51.090;-115.352;2023-04-03T07:19:50;20.79;24.60
76751;SHT31;65216;51.090;-115.352;2023-04-03T07:22:18;20.79;24.59
76751;SHT31;65216;51.090;-115.352;2023-04-03T07:24:45;20.79;24.58
76751;SHT31;65216;51.090;-115.352;2023-04-03T07:27:15;20.77;24.54
76751;SHT31;65216;51.090;-115.352;2023-04-03T07:29:43;20.78;24.51
76751;SHT31;65216;51.090;-115.352;2023-04-03T07:32:12;20.78;24.52
76751;SHT31;65216;51.090;-115.352;2023-04-03T07:34:40;20.76;24.49
76751;SHT31;65216;51.090;-115.352;2023-04-03T07:37:07;20.76;24.49
76751;SHT31;65216;51.090;-115.352;2023-04-03T07:39:34;20.76;24.47
76751;SHT31;65216;51.090;-115.352;2023-04-03T07:42:02;20.76;24.40
76751;SHT31;65216;51.090;-115.352;2023-04-03T07:44:29;20.76;24.42
76751;SHT31;65216;51.090;-115.352;2023-04-03T07:46:56;20.75;24.41
76751;SHT31;65216;51.090;-115.352;2023-04-03T07:49:26;20.75;24.40
76751;SHT31;65216;51.090;-115.352;2023-04-03T07:51:56;20.75;24.40
76751;SHT31;65216;51.090;-115.352;2023-04-03T07:54:24;20.75;24.37
76751;SHT31;65216;51.090;-115.352;2023-04-03T07:56:51;20.76;24.37
76751;SHT31;65216;51.090;-115.352;2023-04-03T07:59:18;20.76;24.37
76751;SHT31;65216;51.090;-115.352;2023-04-03T08:01:45;20.76;24.34
76751;SHT31;65216;51.090;-115.352;2023-04-03T08:04:13;20.75;24.30
76751;SHT31;65216;51.090;-115.352;2023-04-03T08:06:43;20.75;24.30
76751;SHT31;65216;51.090;-115.352;2023-04-03T08:09:10;20.74;24.29
76751;SHT31;65216;51.090;-115.352;2023-04-03T08:11:38;20.74;24.28
76751;SHT31;65216;51.090;-115.352;2023-04-03T08:14:09;20.73;24.29
76751;SHT31;65216;51.090;-115.352;2023-04-03T08:16:42;20.72;24.27
76751;SHT31;65216;51.090;-115.352;2023-04-03T08:19:10;20.73;24.25
76751;SHT31;65216;51.090;-115.352;2023-04-03T08:21:41;20.73;24.20
76751;SHT31;65216;51.090;-115.352;2023-04-03T08:24:09;20.74;24.20
76751;SHT31;65216;51.090;-115.352;2023-04-03T08:26:36;20.73;24.17
76751;SHT31;65216;51.090;-115.352;2023-04-03T08:29:03;20.73;24.14
76751;SHT31;65216;51.090;-115.352;2023-04-03T08:31:30;20.72;24.11
76751;SHT31;65216;51.090;-115.352;2023-04-03T08:33:58;20.72;24.12
76751;SHT31;65216;51.090;-115.352;2023-04-03T08:36:26;20.71;24.10
76751;SHT31;65216;51.090;-115.352;2023-04-03T08:38:57;20.72;24.09
76751;SHT31;65216;51.090;-115.352;2023-04-03T08:47:13;20.73;24.03
76751;SHT31;65216;51.090;-115.352;2023-04-03T08:49:45;20.72;24.06
76751;SHT31;65216;51.090;-115.352;2023-04-03T08:52:20;20.71;24.02
76751;SHT31;65216;51.090;-115.352;2023-04-03T08:55:05;20.72;24.04
76751;SHT31;65216;51.090;-115.352;2023-04-03T08:57:43;20.72;24.04
76751;SHT31;65216;51.090;-115.352;2023-04-03T09:02:52;20.70;24.08
76751;SHT31;65216;51.090;-115.352;2023-04-03T09:08:43;20.71;24.06
76751;SHT31;65216;51.090;-115.352;2023-04-03T09:11:52;20.69;24.05
76751;SHT31;65216;51.090;-115.352;2023-04-03T09:14:37;20.69;24.07
76751;SHT31;65216;51.090;-115.352;2023-04-03T09:23:27;20.69;24.10
76751;SHT31;65216;51.090;-115.352;2023-04-03T09:26:07;20.69;24.10
76751;SHT31;65216;51.090;-115.352;2023-04-03T09:28:51;20.69;24.12
76751;SHT31;65216;51.090;-115.352;2023-04-03T09:31:29;20.69;24.15
76751;SHT31;65216;51.090;-115.352;2023-04-03T09:34:19;20.70;24.13
76751;SHT31;65216;51.090;-115.352;2023-04-03T09:37:00;20.69;24.11
76751;SHT31;65216;51.090;-115.352;2023-04-03T09:39:50;20.69;24.14
76751;SHT31;65216;51.090;-115.352;2023-04-03T09:42:21;20.69;24.12
76751;SHT31;65216;51.090;-115.352;2023-04-03T09:44:54;20.69;24.13
76751;SHT31;65216;51.090;-115.352;2023-04-03T09:47:31;20.69;24.11
76751;SHT31;65216;51.090;-115.352;2023-04-03T09:52:49;20.71;24.10
76751;SHT31;65216;51.090;-115.352;2023-04-03T09:57:53;20.70;24.12
76751;SHT31;65216;51.090;-115.352;2023-04-03T10:00:36;20.69;24.10
76751;SHT31;65216;51.090;-115.352;2023-04-03T10:03:06;20.69;24.09
76751;SHT31;65216;51.090;-115.352;2023-04-03T10:05:56;20.70;24.10
76751;SHT31;65216;51.090;-115.352;2023-04-03T10:08:33;20.70;24.10
76751;SHT31;65216;51.090;-115.352;2023-04-03T10:13:54;20.71;24.08
76751;SHT31;65216;51.090;-115.352;2023-04-03T10:16:29;20.72;24.07
76751;SHT31;65216;51.090;-115.352;2023-04-03T10:22:04;20.72;24.03
76751;SHT31;65216;51.090;-115.352;2023-04-03T10:30:47;20.71;24.00
76751;SHT31;65216;51.090;-115.352;2023-04-03T10:36:46;20.69;23.98
76751;SHT31;65216;51.090;-115.352;2023-04-03T10:57:11;20.54;24.01
76751;SHT31;65216;51.090;-115.352;2023-04-03T10:59:49;20.53;24.02
76751;SHT31;65216;51.090;-115.352;2023-04-03T11:02:31;20.51;24.04
76751;SHT31;65216;51.090;-115.352;2023-04-03T11:05:22;20.49;24.05
76751;SHT31;65216;51.090;-115.352;2023-04-03T11:11:20;20.47;24.04
76751;SHT31;65216;51.090;-115.352;2023-04-03T11:22:42;20.45;24.00
76751;SHT31;65216;51.090;-115.352;2023-04-03T11:25:22;20.44;24.00
76751;SHT31;65216;51.090;-115.352;2023-04-03T11:27:58;20.44;24.00
76751;SHT31;65216;51.090;-115.352;2023-04-03T11:36:18;20.44;23.98
76751;SHT31;65216;51.090;-115.352;2023-04-03T11:39:21;20.43;23.99
76751;SHT31;65216;51.090;-115.352;2023-04-03T11:44:48;20.42;23.99
76751;SHT31;65216;51.090;-115.352;2023-04-03T11:47:50;20.42;23.98
76751;SHT31;65216;51.090;-115.352;2023-04-03T11:58:31;20.42;23.92
76751;SHT31;65216;51.090;-115.352;2023-04-03T12:04:13;20.40;23.91
76751;SHT31;65216;51.090;-115.352;2023-04-03T12:09:10;20.39;23.90
76751;SHT31;65216;51.090;-115.352;2023-04-03T12:11:48;20.38;23.91
76751;SHT31;65216;51.090;-115.352;2023-04-03T12:14:16;20.37;23.90
76751;SHT31;65216;51.090;-115.352;2023-04-03T12:16:45;20.38;23.94
76751;SHT31;65216;51.090;-115.352;2023-04-03T12:19:33;20.39;23.92
76751;SHT31;65216;51.090;-115.352;2023-04-03T12:22:14;20.39;23.91
76751;SHT31;65216;51.090;-115.352;2023-04-03T12:24:49;20.38;23.95
76751;SHT31;65216;51.090;-115.352;2023-04-03T12:27:21;20.36;23.98
76751;SHT31;65216;51.090;-115.352;2023-04-03T12:30:27;20.35;23.97
76751;SHT31;65216;51.090;-115.352;2023-04-03T12:35:57;20.36;24.01
76751;SHT31;65216;51.090;-115.352;2023-04-03T12:38:51;20.36;24.00
76751;SHT31;65216;51.090;-115.352;2023-04-03T12:41:41;20.36;24.02
76751;SHT31;65216;51.090;-115.352;2023-04-03T12:45:13;20.35;24.04
76751;SHT31;65216;51.090;-115.352;2023-04-03T12:47:48;20.34;24.10
76751;SHT31;65216;51.090;-115.352;2023-04-03T12:50:32;20.34;24.10
76751;SHT31;65216;51.090;-115.352;2023-04-03T12:53:01;20.34;24.10
76751;SHT31;65216;51.090;-115.352;2023-04-03T12:55:32;20.33;24.10
76751;SHT31;65216;51.090;-115.352;2023-04-03T12:58:15;20.34;24.14
76751;SHT31;65216;51.090;-115.352;2023-04-03T13:00:59;20.34;24.18
76751;SHT31;65216;51.090;-115.352;2023-04-03T13:03:29;20.33;24.19
76751;SHT31;65216;51.090;-115.352;2023-04-03T13:06:00;20.34;24.20
76751;SHT31;65216;51.090;-115.352;2023-04-03T13:08:29;20.34;24.23
76751;SHT31;65216;51.090;-115.352;2023-04-03T13:11:10;20.33;24.30
76751;SHT31;65216;51.090;-115.352;2023-04-03T13:13:38;20.33;24.32
76751;SHT31;65216;51.090;-115.352;2023-04-03T13:16:19;20.34;24.36
76751;SHT31;65216;51.090;-115.352;2023-04-03T13:18:50;20.34;24.37
76751;SHT31;65216;51.090;-115.352;2023-04-03T13:21:23;20.35;24.38
76751;SHT31;65216;51.090;-115.352;2023-04-03T13:23:55;20.36;24.41
76751;SHT31;65216;51.090;-115.352;2023-04-03T13:26:28;20.36;24.41
76751;SHT31;65216;51.090;-115.352;2023-04-03T13:29:06;20.38;24.43
76751;SHT31;65216;51.090;-115.352;2023-04-03T13:31:46;20.39;24.46
76751;SHT31;65216;51.090;-115.352;2023-04-03T13:34:22;20.39;24.50
76751;SHT31;65216;51.090;-115.352;2023-04-03T13:36:58;20.40;24.52
76751;SHT31;65216;51.090;-115.352;2023-04-03T13:39:30;20.40;24.54
76751;SHT31;65216;51.090;-115.352;2023-04-03T13:42:02;20.40;24.56
76751;SHT31;65216;51.090;-115.352;2023-04-03T13:45:09;20.40;24.60
76751;SHT31;65216;51.090;-115.352;2023-04-03T13:48:18;20.41;24.60
76751;SHT31;65216;51.090;-115.352;2023-04-03T13:53:24;20.41;24.68
76751;SHT31;65216;51.090;-115.352;2023-04-03T13:55:57;20.41;24.70
76751;SHT31;65216;51.090;-115.352;2023-04-03T13:58:32;20.40;24.75
76751;SHT31;65216;51.090;-115.352;2023-04-03T14:06:25;20.45;24.77
76751;SHT31;65216;51.090;-115.352;2023-04-03T14:08:56;20.46;24.78
76751;SHT31;65216;51.090;-115.352;2023-04-03T14:11:26;20.46;24.81
76751;SHT31;65216;51.090;-115.352;2023-04-03T14:14:01;20.49;24.83
76751;SHT31;65216;51.090;-115.352;2023-04-03T14:16:38;20.50;24.83
76751;SHT31;65216;51.090;-115.352;2023-04-03T14:22:10;20.50;24.89
76751;SHT31;65216;51.090;-115.352;2023-04-03T14:25:00;20.50;24.91
76751;SHT31;65216;51.090;-115.352;2023-04-03T14:27:35;20.51;24.97
76751;SHT31;65216;51.090;-115.352;2023-04-03T14:30:08;20.52;24.99
76751;SHT31;65216;51.090;-115.352;2023-04-03T14:32:46;20.52;24.98
76751;SHT31;65216;51.090;-115.352;2023-04-03T14:35:14;20.53;25.01
76751;SHT31;65216;51.090;-115.352;2023-04-03T14:37:44;20.53;25.00
76751;SHT31;65216;51.090;-115.352;2023-04-03T14:40:17;20.56;25.03
76751;SHT31;65216;51.090;-115.352;2023-04-03T14:42:51;20.56;25.08
76751;SHT31;65216;51.090;-115.352;2023-04-03T14:45:20;20.57;25.10
76751;SHT31;65216;51.090;-115.352;2023-04-03T14:47:50;20.59;25.11
76751;SHT31;65216;51.090;-115.352;2023-04-03T14:50:23;20.60;25.13
76751;SHT31;65216;51.090;-115.352;2023-04-03T14:52:54;20.61;25.18
76751;SHT31;65216;51.090;-115.352;2023-04-03T14:55:27;20.63;25.20
76751;SHT31;65216;51.090;-115.352;2023-04-03T14:57:54;20.63;25.23
76751;SHT31;65216;51.090;-115.352;2023-04-03T15:00:21;20.65;25.20
76751;SHT31;65216;51.090;-115.352;2023-04-03T15:02:50;20.67;25.26
76751;SHT31;65216;51.090;-115.352;2023-04-03T15:05:17;20.68;25.27
76751;SHT31;65216;51.090;-115.352;2023-04-03T15:07:49;20.69;25.24
76751;SHT31;65216;51.090;-115.352;2023-04-03T15:10:23;20.69;25.29
76751;SHT31;65216;51.090;-115.352;2023-04-03T15:12:53;20.71;25.29
76751;SHT31;65216;51.090;-115.352;2023-04-03T15:15:22;20.72;25.33
76751;SHT31;65216;51.090;-115.352;2023-04-03T15:17:55;20.74;25.36
76751;SHT31;65216;51.090;-115.352;2023-04-03T15:20:30;20.75;25.38
76751;SHT31;65216;51.090;-115.352;2023-04-03T15:22:59;20.75;25.44
76751;SHT31;65216;51.090;-115.352;2023-04-03T15:25:31;20.77;25.45
76751;SHT31;65216;51.090;-115.352;2023-04-03T15:27:59;20.78;25.50
76751;SHT31;65216;51.090;-115.352;2023-04-03T15:30:27;20.79;25.51
76751;SHT31;65216;51.090;-115.352;2023-04-03T15:32:54;20.81;25.50
76751;SHT31;65216;51.090;-115.352;2023-04-03T15:35:21;20.82;25.51
76751;SHT31;65216;51.090;-115.352;2023-04-03T15:37:49;20.83;25.51
76751;SHT31;65216;51.090;-115.352;2023-04-03T15:40:16;20.84;25.52
76751;SHT31;65216;51.090;-115.352;2023-04-03T15:42:47;20.84;25.54
76751;SHT31;65216;51.090;-115.352;2023-04-03T15:45:14;20.86;25.58
76751;SHT31;65216;51.090;-115.352;2023-04-03T15:47:44;20.86;25.60
76751;SHT31;65216;51.090;-115.352;2023-04-03T15:50:11;20.86;25.61
76751;SHT31;65216;51.090;-115.352;2023-04-03T15:52:41;20.87;25.67
76751;SHT31;65216;51.090;-115.352;2023-04-03T15:55:08;20.88;25.68
76751;SHT31;65216;51.090;-115.352;2023-04-03T15:57:36;20.90;25.73
76751;SHT31;65216;51.090;-115.352;2023-04-03T16:00:03;20.89;25.78
76751;SHT31;65216;51.090;-115.352;2023-04-03T16:02:31;20.91;25.81
76751;SHT31;65216;51.090;-115.352;2023-04-03T16:04:59;20.93;25.81
76751;SHT31;65216;51.090;-115.352;2023-04-03T16:07:26;20.94;25.86
76751;SHT31;65216;51.090;-115.352;2023-04-03T16:09:57;20.96;25.89
76751;SHT31;65216;51.090;-115.352;2023-04-03T16:12:24;20.96;25.91
76751;SHT31;65216;51.090;-115.352;2023-04-03T16:14:51;20.99;25.97
76751;SHT31;65216;51.090;-115.352;2023-04-03T16:17:18;20.99;25.99
76751;SHT31;65216;51.090;-115.352;2023-04-03T16:19:45;21.00;26.05
76751;SHT31;65216;51.090;-115.352;2023-04-03T16:22:19;21.00;26.08
76751;SHT31;65216;51.090;-115.352;2023-04-03T16:24:46;21.00;26.10
76751;SHT31;65216;51.090;-115.352;2023-04-03T16:27:13;21.00;26.11
76751;SHT31;65216;51.090;-115.352;2023-04-03T16:29:40;21.03;26.18
76751;SHT31;65216;51.090;-115.352;2023-04-03T16:32:07;21.04;26.24
76751;SHT31;65216;51.090;-115.352;2023-04-03T16:34:35;21.05;26.31
76751;SHT31;65216;51.090;-115.352;2023-04-03T16:37:03;21.07;26.45
76751;SHT31;65216;51.090;-115.352;2023-04-03T16:39:30;21.08;26.44
76751;SHT31;65216;51.090;-115.352;2023-04-03T16:41:57;21.10;26.49
76751;SHT31;65216;51.090;-115.352;2023-04-03T16:44:24;21.10;26.51
76751;SHT31;65216;51.090;-115.352;2023-04-03T16:46:54;21.12;26.47
76751;SHT31;65216;51.090;-115.352;2023-04-03T16:49:21;21.14;26.42
76751;SHT31;65216;51.090;-115.352;2023-04-03T16:51:48;21.16;26.42
76751;SHT31;65216;51.090;-115.352;2023-04-03T16:54:16;21.16;26.39
76751;SHT31;65216;51.090;-115.352;2023-04-03T16:56:45;21.17;26.35
76751;SHT31;65216;51.090;-115.352;2023-04-03T16:59:15;21.18;26.37
76751;SHT31;65216;51.090;-115.352;2023-04-03T17:01:42;21.19;26.38
76751;SHT31;65216;51.090;-115.352;2023-04-03T17:04:09;21.21;26.50